Time;durP1;ratioP1;P1;durP2;ratioP2;P2;SDS_P1;SDS_P2;PMS_P1;PMS_P2;Temp;Humidity;BMP_temperature;BMP_pressure;BME280_temperature;BME280_humidity;BME280_pressure;Samples;Min_cycle;Max_cycle;Signal;HPM_P1;HPM_P2
2023/04/16 00:00:36;;;;;;;;;;;18.40;55.60;;;;;;6134237;29;19949;-69
2023/04/16 00:03:37;;;;;;;;;;;18.40;55.50;;;;;;6151394;29;19929;-70
2023/04/16 00:06:37;;;;;;;;;;;18.40;55.60;;;;;;6133921;29;19911;-69
2023/04/16 00:09:38;;;;;;;;;;;18.40;55.60;;;;;;6151129;29;19910;-69
2023/04/16 00:12:38;;;;;;;;;;;18.40;55.50;;;;;;6151122;29;20396;-70
2023/04/16 00:15:39;;;;;;;;;;;18.40;55.60;;;;;;6151410;29;20073;-69
2023/04/16 00:18:40;;;;;;;;;;;18.40;55.50;;;;;;6150872;29;20017;-70
2023/04/16 00:21:40;;;;;;;;;;;18.40;55.50;;;;;;6151025;29;19918;-70
2023/04/16 00:24:41;;;;;;;;;;;18.40;55.50;;;;;;6146640;29;19910;-70
2023/04/16 00:27:41;;;;;;;;;;;18.40;55.60;;;;;;6147360;29;20008;-70
2023/04/16 00:30:42;;;;;;;;;;;18.40;55.50;;;;;;6150705;29;20332;-69
2023/04/16 00:33:42;;;;;;;;;;;18.40;55.50;;;;;;6132191;29;19914;-70
2023/04/16 00:36:43;;;;;;;;;;;18.40;55.50;;;;;;6130509;29;19914;-70
2023/04/16 00:39:44;;;;;;;;;;;18.40;55.60;;;;;;6150567;29;20332;-70
2023/04/16 00:42:44;;;;;;;;;;;18.40;55.50;;;;;;6149098;29;19911;-70
2023/04/16 00:45:45;;;;;;;;;;;18.40;55.50;;;;;;6150441;28;19938;-70
2023/04/16 00:48:46;;;;;;;;;;;18.40;55.60;;;;;;6150306;29;19993;-70
2023/04/16 00:51:46;;;;;;;;;;;18.40;55.50;;;;;;6150419;29;20013;-70
2023/04/16 00:54:47;;;;;;;;;;;18.40;55.50;;;;;;6149876;28;19980;-70
2023/04/16 00:57:48;;;;;;;;;;;18.40;55.50;;;;;;6150424;29;20377;-70
2023/04/16 01:00:49;;;;;;;;;;;18.40;55.60;;;;;;6132868;29;19966;-69
2023/04/16 01:03:50;;;;;;;;;;;18.40;55.40;;;;;;6150038;28;19973;-70
2023/04/16 01:06:50;;;;;;;;;;;18.40;55.50;;;;;;6132475;29;20339;-70
2023/04/16 01:09:51;;;;;;;;;;;18.40;55.50;;;;;;6149835;29;19911;-70
2023/04/16 01:12:51;;;;;;;;;;;18.40;55.50;;;;;;6124554;29;19911;-69
2023/04/16 01:15:52;;;;;;;;;;;18.40;55.50;;;;;;6124766;29;19918;-70
2023/04/16 01:18:52;;;;;;;;;;;18.40;55.50;;;;;;6124577;29;19911;-70
2023/04/16 01:21:53;;;;;;;;;;;18.40;55.50;;;;;;6125818;29;19970;-69
2023/04/16 01:24:53;;;;;;;;;;;18.40;55.40;;;;;;6108785;29;19922;-70
2023/04/16 01:27:56;;;;;;;;;;;18.40;55.50;;;;;;6108482;29;19911;-70
2023/04/16 01:30:56;;;;;;;;;;;18.40;55.50;;;;;;6125477;29;20366;-70
2023/04/16 01:33:57;;;;;;;;;;;18.40;55.50;;;;;;6125670;29;19993;-70
2023/04/16 01:36:57;;;;;;;;;;;18.40;55.50;;;;;;6125563;29;19962;-70
2023/04/16 01:39:58;;;;;;;;;;;18.40;55.60;;;;;;6125548;29;19918;-70
2023/04/16 01:42:58;;;;;;;;;;;18.40;55.50;;;;;;6123807;29;19918;-69
2023/04/16 01:46:19;;;;;;;;;;;18.40;55.50;;;;;;6125558;29;19937;-70
2023/04/16 01:49:20;;;;;;;;;;;18.40;55.50;;;;;;6108260;29;19922;-70
2023/04/16 01:52:21;;;;;;;;;;;18.40;55.50;;;;;;6125936;29;19911;-69
2023/04/16 01:55:21;;;;;;;;;;;18.40;55.40;;;;;;6140771;29;20308;-70
2023/04/16 01:58:22;;;;;;;;;;;18.40;55.40;;;;;;6147630;29;20339;-70
2023/04/16 02:01:23;;;;;;;;;;;18.40;55.50;;;;;;6148669;29;19921;-70
2023/04/16 02:04:23;;;;;;;;;;;18.40;55.50;;;;;;6142144;28;20009;-69
2023/04/16 02:07:24;;;;;;;;;;;18.40;55.50;;;;;;6148880;29;19910;-70
2023/04/16 02:10:25;;;;;;;;;;;18.40;55.60;;;;;;6148416;29;20266;-70
2023/04/16 02:13:27;;;;;;;;;;;18.40;55.50;;;;;;6122771;29;19915;-70
2023/04/16 02:16:27;;;;;;;;;;;18.40;55.40;;;;;;6127297;29;19914;-70
2023/04/16 02:19:29;;;;;;;;;;;18.40;55.50;;;;;;6148561;29;19910;-70
2023/04/16 02:22:30;;;;;;;;;;;18.40;55.40;;;;;;6148386;29;19915;-70
2023/04/16 02:25:31;;;;;;;;;;;18.40;55.40;;;;;;6124712;29;20272;-70
2023/04/16 02:28:32;;;;;;;;;;;18.40;55.50;;;;;;6128910;29;19910;-69
2023/04/16 02:31:32;;;;;;;;;;;18.40;55.40;;;;;;6148002;29;19917;-68
2023/04/16 02:34:34;;;;;;;;;;;18.40;55.50;;;;;;6147739;28;19914;-67
2023/04/16 02:37:34;;;;;;;;;;;18.40;55.50;;;;;;6147117;29;19910;-67
2023/04/16 02:40:35;;;;;;;;;;;18.40;55.40;;;;;;6146849;29;19917;-67
2023/04/16 02:43:35;;;;;;;;;;;18.40;55.50;;;;;;6145384;29;19966;-70
2023/04/16 02:46:36;;;;;;;;;;;18.40;55.50;;;;;;6147845;28;19914;-70
2023/04/16 02:49:36;;;;;;;;;;;18.40;55.40;;;;;;6130601;29;19938;-70
2023/04/16 02:52:37;;;;;;;;;;;18.40;55.40;;;;;;6147745;29;19946;-69
2023/04/16 02:55:37;;;;;;;;;;;18.40;55.40;;;;;;6147229;28;19918;-70
2023/04/16 02:58:38;;;;;;;;;;;18.40;55.40;;;;;;6147449;28;19914;-70
2023/04/16 03:01:38;;;;;;;;;;;18.40;55.50;;;;;;6154377;28;19930;-70
2023/04/16 03:04:39;;;;;;;;;;;18.40;55.40;;;;;;6154628;28;19918;-70
2023/04/16 03:07:40;;;;;;;;;;;18.30;55.40;;;;;;6137881;29;20397;-70
2023/04/16 03:10:40;;;;;;;;;;;18.40;55.40;;;;;;6137431;28;20385;-70
2023/04/16 03:13:41;;;;;;;;;;;18.40;55.30;;;;;;6154996;28;19914;-70
2023/04/16 03:16:42;;;;;;;;;;;18.40;55.40;;;;;;6154686;28;19917;-70
2023/04/16 03:19:42;;;;;;;;;;;18.40;55.40;;;;;;6154980;28;19966;-70
2023/04/16 03:22:43;;;;;;;;;;;18.30;55.40;;;;;;6154561;28;19938;-70
2023/04/16 03:25:45;;;;;;;;;;;18.40;55.50;;;;;;6150760;28;19910;-70
2023/04/16 03:28:46;;;;;;;;;;;18.30;55.30;;;;;;6154993;28;19914;-70
2023/04/16 03:31:46;;;;;;;;;;;18.30;55.30;;;;;;6169964;28;19962;-70
2023/04/16 03:34:47;;;;;;;;;;;18.40;55.40;;;;;;6151592;28;20001;-70
2023/04/16 03:37:49;;;;;;;;;;;18.40;55.40;;;;;;6153411;28;19917;-70
2023/04/16 03:40:49;;;;;;;;;;;18.40;55.40;;;;;;6154605;28;19944;-71
2023/04/16 03:43:50;;;;;;;;;;;18.40;55.40;;;;;;6154564;29;20370;-70
2023/04/16 03:46:50;;;;;;;;;;;18.40;55.50;;;;;;6130957;29;19911;-70
2023/04/16 03:49:51;;;;;;;;;;;18.40;55.40;;;;;;6136412;29;19917;-70
2023/04/16 03:52:51;;;;;;;;;;;18.40;55.50;;;;;;6136760;29;19946;-70
2023/04/16 03:55:52;;;;;;;;;;;18.40;55.50;;;;;;6154229;28;19910;-70
2023/04/16 03:58:52;;;;;;;;;;;18.40;55.40;;;;;;6169429;28;19911;-70
2023/04/16 04:01:53;;;;;;;;;;;18.40;55.40;;;;;;6153179;28;19929;-70
2023/04/16 04:04:53;;;;;;;;;;;18.40;55.50;;;;;;6154255;28;19911;-70
2023/04/16 04:07:54;;;;;;;;;;;18.30;55.40;;;;;;6154185;29;20321;-70
2023/04/16 04:10:55;;;;;;;;;;;18.30;55.30;;;;;;6146215;28;19942;-70
2023/04/16 04:13:55;;;;;;;;;;;18.30;55.40;;;;;;6150287;28;19925;-70
2023/04/16 04:16:58;;;;;;;;;;;18.40;55.40;;;;;;6149986;29;20203;-70
2023/04/16 04:19:58;;;;;;;;;;;18.30;55.40;;;;;;6150371;29;20365;-70
2023/04/16 04:22:59;;;;;;;;;;;18.30;55.40;;;;;;6150310;29;19917;-70
2023/04/16 04:26:02;;;;;;;;;;;18.30;55.30;;;;;;6150042;29;19915;-70
2023/04/16 04:29:03;;;;;;;;;;;18.30;55.30;;;;;;6150158;29;19950;-70
2023/04/16 04:32:03;;;;;;;;;;;18.30;55.30;;;;;;6146796;29;20377;-70
2023/04/16 04:35:04;;;;;;;;;;;18.40;55.50;;;;;;6149830;28;19922;-70
2023/04/16 04:38:05;;;;;;;;;;;18.30;55.40;;;;;;6149731;29;19918;-70
2023/04/16 04:41:06;;;;;;;;;;;18.30;55.40;;;;;;6150228;29;20374;-70
2023/04/16 04:44:06;;;;;;;;;;;18.40;55.50;;;;;;6149456;29;19946;-70
2023/04/16 04:47:07;;;;;;;;;;;18.40;55.50;;;;;;6164475;28;19910;-70
2023/04/16 04:50:07;;;;;;;;;;;18.30;55.30;;;;;;6149190;29;19917;-70
2023/04/16 04:53:13;;;;;;;;;;;18.30;55.40;;;;;;6149898;29;19934;-71
2023/04/16 04:56:14;;;;;;;;;;;18.30;55.30;;;;;;6149174;28;19910;-70
2023/04/16 05:02:52;;;;;;;;;;;18.30;55.40;;;;;;6148673;29;20494;-70
2023/04/16 05:05:53;;;;;;;;;;;18.30;55.30;;;;;;6143677;28;19925;-70
2023/04/16 05:08:53;;;;;;;;;;;18.40;55.50;;;;;;6148526;29;19953;-70
2023/04/16 05:11:54;;;;;;;;;;;18.30;55.40;;;;;;6132203;29;19915;-70
2023/04/16 05:14:54;;;;;;;;;;;18.30;55.40;;;;;;6148851;28;19918;-70
2023/04/16 05:17:55;;;;;;;;;;;18.40;55.40;;;;;;6148990;29;19921;-70
2023/04/16 05:20:55;;;;;;;;;;;18.30;55.40;;;;;;6149262;29;19917;-69
2023/04/16 05:23:56;;;;;;;;;;;18.40;55.50;;;;;;6144466;28;20028;-69
2023/04/16 05:26:56;;;;;;;;;;;18.30;55.40;;;;;;6131878;29;19917;-70
2023/04/16 05:29:57;;;;;;;;;;;18.40;55.50;;;;;;6131850;29;19918;-70
2023/04/16 05:32:58;;;;;;;;;;;18.40;55.40;;;;;;6131868;29;19918;-69
2023/04/16 05:35:58;;;;;;;;;;;18.40;55.50;;;;;;6142490;29;19915;-70
2023/04/16 05:38:59;;;;;;;;;;;18.30;55.40;;;;;;6148659;29;19911;-70
2023/04/16 05:41:59;;;;;;;;;;;18.30;55.40;;;;;;6147231;29;19997;-70
2023/04/16 05:45:01;;;;;;;;;;;18.30;55.40;;;;;;6148403;29;19970;-70
2023/04/16 05:48:01;;;;;;;;;;;18.30;55.40;;;;;;6147065;29;19911;-70
2023/04/16 05:51:02;;;;;;;;;;;18.40;55.50;;;;;;6148304;29;19911;-70
2023/04/16 05:54:02;;;;;;;;;;;18.30;55.40;;;;;;6148233;28;19954;-70
2023/04/16 05:57:03;;;;;;;;;;;18.30;55.40;;;;;;6148027;29;20308;-70
2023/04/16 06:00:04;;;;;;;;;;;18.30;55.40;;;;;;6163028;28;19918;-70
2023/04/16 06:03:04;;;;;;;;;;;18.30;55.30;;;;;;6147303;29;20010;-70
2023/04/16 06:06:07;;;;;;;;;;;18.30;55.40;;;;;;6147880;28;19919;-70
2023/04/16 06:09:08;;;;;;;;;;;18.30;55.40;;;;;;6130671;29;19910;-70
2023/04/16 06:12:08;;;;;;;;;;;18.30;55.30;;;;;;6147950;29;19911;-70
2023/04/16 06:15:09;;;;;;;;;;;18.30;55.40;;;;;;6147882;29;19922;-70
2023/04/16 06:18:10;;;;;;;;;;;18.40;55.40;;;;;;6139129;29;19914;-68
2023/04/16 06:21:10;;;;;;;;;;;18.40;55.50;;;;;;6136805;28;19922;-70
2023/04/16 06:24:12;;;;;;;;;;;18.30;55.40;;;;;;6143628;29;19940;-71
2023/04/16 06:27:12;;;;;;;;;;;18.30;55.30;;;;;;6145255;29;19911;-70
2023/04/16 06:30:14;;;;;;;;;;;18.40;55.30;;;;;;6128974;29;19918;-70
2023/04/16 06:33:14;;;;;;;;;;;18.40;55.30;;;;;;6128912;29;19942;-70
2023/04/16 06:36:15;;;;;;;;;;;18.40;55.40;;;;;;6127864;29;19910;-70
2023/04/16 06:39:16;;;;;;;;;;;18.40;55.30;;;;;;6146046;29;19962;-70
2023/04/16 06:42:16;;;;;;;;;;;18.40;55.30;;;;;;6146130;29;20301;-70
2023/04/16 06:45:17;;;;;;;;;;;18.40;55.40;;;;;;6146526;29;19938;-70
2023/04/16 06:48:17;;;;;;;;;;;18.40;55.40;;;;;;6144655;28;20307;-70
2023/04/16 06:51:18;;;;;;;;;;;18.40;55.40;;;;;;6145315;29;19911;-70
2023/04/16 06:54:19;;;;;;;;;;;18.40;55.40;;;;;;6146213;29;19942;-70
2023/04/16 06:57:19;;;;;;;;;;;18.40;55.30;;;;;;6139477;28;20404;-70
2023/04/16 07:00:20;;;;;;;;;;;18.40;55.50;;;;;;6145740;29;20079;-70
2023/04/16 07:03:20;;;;;;;;;;;18.50;55.60;;;;;;6128534;29;19929;-70
2023/04/16 07:06:21;;;;;;;;;;;18.50;55.50;;;;;;6146015;29;19918;-69
2023/04/16 07:09:22;;;;;;;;;;;18.50;55.50;;;;;;6127209;29;19946;-70
2023/04/16 07:12:22;;;;;;;;;;;18.50;55.50;;;;;;6132981;29;20503;-70
2023/04/16 07:15:23;;;;;;;;;;;18.40;55.50;;;;;;6145303;28;20001;-69
2023/04/16 07:18:23;;;;;;;;;;;18.40;55.50;;;;;;6137894;29;20420;-70
2023/04/16 07:21:25;;;;;;;;;;;18.40;55.40;;;;;;6144948;29;19910;-70
2023/04/16 07:24:25;;;;;;;;;;;18.40;55.50;;;;;;6128697;29;19915;-69
2023/04/16 07:27:26;;;;;;;;;;;18.40;55.50;;;;;;6134278;29;20194;-70
2023/04/16 07:30:32;;;;;;;;;;;18.40;55.50;;;;;;6144275;29;19910;-69
2023/04/16 07:33:33;;;;;;;;;;;18.40;55.60;;;;;;6124767;29;19919;-69
2023/04/16 07:36:33;;;;;;;;;;;18.40;55.50;;;;;;6127838;29;19921;-69
2023/04/16 07:39:34;;;;;;;;;;;18.40;55.60;;;;;;6141946;29;19921;-69
2023/04/16 07:42:35;;;;;;;;;;;18.40;55.60;;;;;;6145383;29;19910;-71
2023/04/16 07:45:35;;;;;;;;;;;18.50;55.60;;;;;;6146380;28;19910;-69
2023/04/16 07:48:36;;;;;;;;;;;18.40;55.50;;;;;;6131960;29;19911;-70
2023/04/16 07:51:36;;;;;;;;;;;18.50;55.60;;;;;;6138894;29;20006;-70
2023/04/16 07:54:37;;;;;;;;;;;18.40;55.60;;;;;;6150126;29;19915;-70
2023/04/16 07:57:37;;;;;;;;;;;18.40;55.60;;;;;;6149276;29;19911;-70
2023/04/16 08:00:38;;;;;;;;;;;18.40;55.60;;;;;;6149641;29;19921;-69
2023/04/16 08:03:39;;;;;;;;;;;18.40;55.70;;;;;;6149956;29;19929;-70
2023/04/16 08:06:40;;;;;;;;;;;18.40;55.60;;;;;;6150302;29;19997;-70
2023/04/16 08:10:01;;;;;;;;;;;18.40;55.70;;;;;;6148856;29;20436;-69
2023/04/16 08:13:01;;;;;;;;;;;18.40;55.60;;;;;;6149809;29;19934;-69
2023/04/16 08:16:02;;;;;;;;;;;18.40;55.70;;;;;;6125850;29;19915;-69
2023/04/16 08:19:03;;;;;;;;;;;18.40;55.70;;;;;;6150423;29;20783;-69
2023/04/16 08:22:03;;;;;;;;;;;18.40;55.70;;;;;;6133394;29;19911;-69
2023/04/16 08:25:04;;;;;;;;;;;18.40;55.70;;;;;;6146501;29;19911;-69
2023/04/16 08:28:05;;;;;;;;;;;18.50;55.80;;;;;;6150594;29;19932;-69
2023/04/16 08:31:05;;;;;;;;;;;18.40;55.70;;;;;;6146316;29;19914;-69
2023/04/16 08:34:06;;;;;;;;;;;18.40;55.70;;;;;;6150118;29;19929;-69
2023/04/16 08:37:07;;;;;;;;;;;18.40;55.70;;;;;;6149084;29;19915;-69
2023/04/16 08:40:08;;;;;;;;;;;18.40;55.70;;;;;;6147590;29;19922;-69
2023/04/16 08:43:12;;;;;;;;;;;18.40;55.70;;;;;;6149960;29;19914;-69
2023/04/16 08:46:15;;;;;;;;;;;18.40;55.70;;;;;;6149691;28;19914;-69
2023/04/16 08:49:19;;;;;;;;;;;18.40;55.70;;;;;;6132122;29;19915;-69
2023/04/16 08:52:21;;;;;;;;;;;18.40;55.70;;;;;;6149823;29;20309;-69
2023/04/16 08:55:25;;;;;;;;;;;18.40;55.70;;;;;;6149688;28;19922;-69
2023/04/16 08:58:27;;;;;;;;;;;18.40;55.70;;;;;;6127148;29;19915;-69
2023/04/16 09:01:28;;;;;;;;;;;18.40;55.60;;;;;;6149496;28;19950;-69
2023/04/16 09:04:30;;;;;;;;;;;18.40;55.60;;;;;;6146310;29;20278;-69
2023/04/16 09:07:32;;;;;;;;;;;18.40;55.70;;;;;;6149283;29;20005;-69
2023/04/16 09:10:32;;;;;;;;;;;18.40;55.70;;;;;;6149694;29;20430;-69
2023/04/16 09:13:33;;;;;;;;;;;18.40;55.70;;;;;;6164090;28;19915;-69
2023/04/16 09:16:34;;;;;;;;;;;18.40;55.70;;;;;;6143429;29;19911;-69
2023/04/16 09:19:34;;;;;;;;;;;18.40;55.70;;;;;;6147758;29;19910;-69
2023/04/16 09:22:36;;;;;;;;;;;18.40;55.60;;;;;;6149278;29;19911;-69
2023/04/16 09:25:37;;;;;;;;;;;18.40;55.60;;;;;;6148706;28;19910;-69
2023/04/16 09:28:41;;;;;;;;;;;18.40;55.60;;;;;;6149133;29;20288;-69
2023/04/16 09:32:00;;;;;;;;;;;18.40;55.70;;;;;;6145238;29;20285;-69
2023/04/16 09:35:01;;;;;;;;;;;18.40;55.70;;;;;;6148514;28;19923;-69
2023/04/16 09:38:01;;;;;;;;;;;18.40;55.70;;;;;;6148738;29;19911;-69
2023/04/16 09:41:07;;;;;;;;;;;18.40;55.70;;;;;;6148701;29;20001;-69
2023/04/16 09:44:07;;;;;;;;;;;18.40;55.60;;;;;;6148356;28;20010;-69
2023/04/16 09:47:08;;;;;;;;;;;18.40;55.60;;;;;;6148802;29;19914;-69
2023/04/16 09:50:12;;;;;;;;;;;18.40;55.70;;;;;;6149090;29;19920;-69
2023/04/16 09:53:13;;;;;;;;;;;18.40;55.70;;;;;;6148282;29;20001;-70
2023/04/16 09:56:14;;;;;;;;;;;18.40;55.70;;;;;;6147927;29;19939;-69
2023/04/16 09:59:18;;;;;;;;;;;18.40;55.60;;;;;;6148280;29;19915;-69
2023/04/16 10:02:19;;;;;;;;;;;18.40;55.60;;;;;;6148032;29;19923;-69
2023/04/16 10:05:20;;;;;;;;;;;18.40;55.70;;;;;;6148227;28;20321;-69
2023/04/16 10:08:22;;;;;;;;;;;18.40;55.70;;;;;;6147759;28;19915;-69
2023/04/16 10:11:23;;;;;;;;;;;18.40;55.60;;;;;;6141457;29;19914;-69
2023/04/16 10:14:24;;;;;;;;;;;18.40;55.50;;;;;;6147672;28;19915;-69
2023/04/16 10:17:28;;;;;;;;;;;18.40;55.60;;;;;;6122524;29;19918;-69
2023/04/16 10:20:29;;;;;;;;;;;18.40;55.60;;;;;;6125035;29;20393;-68
2023/04/16 10:23:31;;;;;;;;;;;18.40;55.60;;;;;;6126701;29;19911;-69
2023/04/16 10:26:32;;;;;;;;;;;18.40;55.70;;;;;;6130472;29;20377;-69
2023/04/16 10:29:33;;;;;;;;;;;18.40;55.60;;;;;;6147669;29;19918;-69
2023/04/16 10:32:35;;;;;;;;;;;18.40;55.60;;;;;;6147595;29;19962;-69
2023/04/16 10:35:38;;;;;;;;;;;18.40;55.60;;;;;;6141789;29;19926;-69
2023/04/16 10:38:39;;;;;;;;;;;18.40;55.60;;;;;;6123511;29;20041;-69
2023/04/16 10:41:41;;;;;;;;;;;18.40;55.60;;;;;;6129422;29;19914;-69
2023/04/16 10:44:42;;;;;;;;;;;18.40;55.50;;;;;;6147086;28;19993;-69
2023/04/16 10:47:42;;;;;;;;;;;18.40;55.40;;;;;;6147623;29;19911;-69
2023/04/16 10:50:52;;;;;;;;;;;18.40;55.60;;;;;;6162686;28;19917;-70
2023/04/16 10:53:53;;;;;;;;;;;18.40;55.60;;;;;;6147400;29;20009;-69
2023/04/16 10:56:58;;;;;;;;;;;18.40;55.60;;;;;;6147319;29;19950;-70
2023/04/16 10:59:59;;;;;;;;;;;18.40;55.60;;;;;;6146698;29;19922;-70
2023/04/16 11:03:00;;;;;;;;;;;18.40;55.50;;;;;;6138452;28;19923;-69
2023/04/16 11:06:11;;;;;;;;;;;18.40;55.60;;;;;;6126188;29;19979;-70
2023/04/16 11:09:32;;;;;;;;;;;18.40;55.60;;;;;;6134609;29;19914;-69
2023/04/16 11:12:38;;;;;;;;;;;18.40;55.60;;;;;;6145744;29;19949;-69
2023/04/16 11:15:39;;;;;;;;;;;18.40;55.70;;;;;;6145825;28;19925;-70
2023/04/16 11:18:40;;;;;;;;;;;18.40;55.60;;;;;;6145660;29;19910;-70
2023/04/16 11:21:43;;;;;;;;;;;18.40;55.60;;;;;;6148503;28;19915;-69
2023/04/16 11:24:45;;;;;;;;;;;18.40;55.60;;;;;;6143136;28;19946;-70
2023/04/16 11:27:45;;;;;;;;;;;18.40;55.50;;;;;;6133291;29;20004;-70
2023/04/16 11:30:46;;;;;;;;;;;18.40;55.60;;;;;;6150728;29;20443;-70
2023/04/16 11:33:46;;;;;;;;;;;18.40;55.70;;;;;;6149777;29;19970;-70
2023/04/16 11:36:48;;;;;;;;;;;18.40;55.60;;;;;;6144955;29;19917;-70
2023/04/16 11:39:52;;;;;;;;;;;18.40;55.70;;;;;;6150049;29;19918;-70
2023/04/16 11:42:52;;;;;;;;;;;18.40;55.70;;;;;;6144913;29;19911;-70
2023/04/16 11:45:55;;;;;;;;;;;18.40;55.70;;;;;;6149153;28;19949;-69
2023/04/16 11:48:55;;;;;;;;;;;18.40;55.70;;;;;;6133162;29;19917;-69
2023/04/16 11:51:56;;;;;;;;;;;18.40;55.60;;;;;;6149511;29;19914;-70
2023/04/16 11:54:57;;;;;;;;;;;18.40;55.70;;;;;;6132515;29;19914;-69
2023/04/16 11:58:09;;;;;;;;;;;18.40;55.70;;;;;;6145944;29;19911;-70
2023/04/16 12:01:10;;;;;;;;;;;18.40;55.70;;;;;;6124755;29;20045;-70
2023/04/16 12:04:12;;;;;;;;;;;18.40;55.70;;;;;;6136568;29;19938;-69
2023/04/16 12:07:13;;;;;;;;;;;18.40;55.70;;;;;;6149072;29;19910;-69
2023/04/16 12:10:13;;;;;;;;;;;18.40;55.70;;;;;;6137938;29;20377;-70
2023/04/16 12:13:16;;;;;;;;;;;18.40;55.70;;;;;;6113695;29;19911;-70
2023/04/16 12:16:19;;;;;;;;;;;18.40;55.70;;;;;;6125527;29;20351;-69
2023/04/16 12:19:20;;;;;;;;;;;18.40;55.70;;;;;;6142548;29;19973;-69
2023/04/16 12:22:26;;;;;;;;;;;18.40;55.70;;;;;;6149123;29;19919;-69
2023/04/16 12:25:27;;;;;;;;;;;18.40;55.70;;;;;;6143761;28;19960;-69
2023/04/16 12:28:28;;;;;;;;;;;18.40;55.70;;;;;;6131877;29;20354;-69
2023/04/16 12:31:37;;;;;;;;;;;18.40;55.80;;;;;;6148565;28;19982;-69
2023/04/16 12:34:48;;;;;;;;;;;18.40;55.80;;;;;;6144121;28;20349;-69
2023/04/16 12:37:49;;;;;;;;;;;18.40;55.80;;;;;;6149149;29;19918;-69
2023/04/16 12:40:50;;;;;;;;;;;18.40;55.80;;;;;;6148572;29;19914;-69
2023/04/16 12:43:51;;;;;;;;;;;18.40;55.80;;;;;;6146451;29;19914;-69
2023/04/16 12:46:51;;;;;;;;;;;18.40;55.80;;;;;;6148678;29;20005;-69
2023/04/16 12:49:52;;;;;;;;;;;18.40;55.80;;;;;;6148241;29;19910;-69
2023/04/16 12:52:52;;;;;;;;;;;18.40;55.70;;;;;;6148047;29;19917;-69
2023/04/16 12:55:53;;;;;;;;;;;18.40;56.40;;;;;;6148465;28;19919;-70
2023/04/16 12:58:54;;;;;;;;;;;18.40;55.80;;;;;;6148011;29;19939;-69
2023/04/16 13:01:54;;;;;;;;;;;18.40;55.80;;;;;;6129598;28;20441;-70
2023/04/16 13:04:55;;;;;;;;;;;18.40;55.80;;;;;;6147210;28;19910;-69
2023/04/16 13:07:55;;;;;;;;;;;18.40;55.80;;;;;;6148626;29;19918;-69
2023/04/16 13:10:56;;;;;;;;;;;18.40;55.80;;;;;;6132135;29;19911;-69
2023/04/16 13:13:57;;;;;;;;;;;18.40;55.80;;;;;;6147715;29;19976;-70
2023/04/16 13:16:57;;;;;;;;;;;18.40;55.80;;;;;;6148008;29;19918;-69
2023/04/16 13:19:58;;;;;;;;;;;18.40;55.80;;;;;;6128052;29;19970;-69
2023/04/16 13:22:58;;;;;;;;;;;18.40;55.80;;;;;;6147321;29;19915;-70
2023/04/16 13:25:59;;;;;;;;;;;18.40;55.80;;;;;;6125920;29;19922;-69
2023/04/16 13:29:00;;;;;;;;;;;18.40;55.80;;;;;;6124386;29;19914;-70
2023/04/16 13:32:00;;;;;;;;;;;18.40;55.80;;;;;;6139637;29;19922;-69
2023/04/16 13:35:01;;;;;;;;;;;18.40;55.80;;;;;;6146451;29;20389;-69
2023/04/16 13:38:01;;;;;;;;;;;18.40;55.80;;;;;;6146833;29;19981;-69
2023/04/16 13:41:02;;;;;;;;;;;18.40;55.80;;;;;;6147332;29;19921;-69
2023/04/16 13:44:03;;;;;;;;;;;18.40;55.80;;;;;;6147001;28;19910;-73
2023/04/16 13:47:03;;;;;;;;;;;18.40;55.80;;;;;;6140350;29;19910;-73
2023/04/16 13:50:04;;;;;;;;;;;18.40;55.80;;;;;;6145987;29;19911;-74
2023/04/16 13:53:05;;;;;;;;;;;18.40;55.80;;;;;;6147477;29;19917;-73
2023/04/16 13:56:06;;;;;;;;;;;18.40;55.80;;;;;;6147434;28;20365;-73
2023/04/16 13:59:06;;;;;;;;;;;18.40;55.80;;;;;;6137887;29;19910;-74
2023/04/16 14:02:08;;;;;;;;;;;18.40;55.80;;;;;;6121763;29;20271;-75
2023/04/16 14:05:08;;;;;;;;;;;18.50;55.80;;;;;;6124123;29;19919;-75
2023/04/16 14:08:09;;;;;;;;;;;18.50;55.90;;;;;;6120469;29;19969;-74
2023/04/16 14:11:10;;;;;;;;;;;18.50;55.60;;;;;;6124990;29;20512;-74
2023/04/16 14:14:11;;;;;;;;;;;18.50;55.50;;;;;;6129215;28;19918;-75
2023/04/16 14:17:12;;;;;;;;;;;18.50;55.40;;;;;;6140464;29;19925;-74
2023/04/16 14:20:13;;;;;;;;;;;18.60;55.50;;;;;;6140847;29;19921;-73
2023/04/16 14:23:13;;;;;;;;;;;18.60;55.60;;;;;;6146114;29;19921;-73
2023/04/16 14:26:14;;;;;;;;;;;18.50;55.60;;;;;;6141286;29;19921;-73
2023/04/16 14:29:14;;;;;;;;;;;18.50;55.60;;;;;;6146844;29;20348;-73
2023/04/16 14:32:15;;;;;;;;;;;18.50;55.70;;;;;;6146685;29;19910;-73
2023/04/16 14:35:16;;;;;;;;;;;18.50;55.90;;;;;;6139803;29;19922;-76
2023/04/16 14:38:16;;;;;;;;;;;18.50;55.90;;;;;;6137587;29;19922;-73
2023/04/16 14:41:17;;;;;;;;;;;18.50;55.90;;;;;;6127169;29;19945;-73
2023/04/16 14:44:18;;;;;;;;;;;18.50;55.90;;;;;;6144752;29;20552;-73
2023/04/16 14:47:19;;;;;;;;;;;18.50;55.90;;;;;;6133053;29;20257;-74
2023/04/16 14:50:19;;;;;;;;;;;18.50;55.90;;;;;;6122580;29;19925;-73
2023/04/16 14:53:22;;;;;;;;;;;18.50;55.90;;;;;;6140827;29;19922;-73
2023/04/16 14:56:22;;;;;;;;;;;18.50;55.90;;;;;;6143995;28;20121;-72
2023/04/16 14:59:23;;;;;;;;;;;18.50;55.90;;;;;;6146803;29;19922;-72
2023/04/16 15:02:23;;;;;;;;;;;18.50;55.90;;;;;;6145461;29;20033;-73
2023/04/16 15:05:24;;;;;;;;;;;18.50;55.90;;;;;;6146176;28;20005;-73
2023/04/16 15:08:25;;;;;;;;;;;18.50;56.00;;;;;;6124780;29;19997;-73
2023/04/16 15:11:25;;;;;;;;;;;18.50;55.90;;;;;;6129309;29;20009;-73
2023/04/16 15:14:26;;;;;;;;;;;18.50;55.90;;;;;;6145752;29;19918;-71
2023/04/16 15:17:26;;;;;;;;;;;18.50;55.90;;;;;;6127908;29;19911;-71
2023/04/16 15:20:28;;;;;;;;;;;18.50;56.00;;;;;;6129537;29;19969;-71
2023/04/16 15:23:29;;;;;;;;;;;18.50;56.00;;;;;;6118931;29;19914;-70
2023/04/16 15:26:29;;;;;;;;;;;18.50;56.00;;;;;;6128821;29;19966;-73
2023/04/16 15:29:30;;;;;;;;;;;18.50;55.90;;;;;;6146309;29;19919;-73
2023/04/16 15:32:31;;;;;;;;;;;18.50;56.00;;;;;;6143268;29;20064;-74
2023/04/16 15:35:31;;;;;;;;;;;18.50;56.00;;;;;;6145544;28;20199;-74
2023/04/16 15:38:32;;;;;;;;;;;18.50;56.00;;;;;;6150871;28;19975;-73
2023/04/16 15:41:34;;;;;;;;;;;18.50;56.00;;;;;;6146204;29;20670;-73
2023/04/16 15:44:35;;;;;;;;;;;18.50;56.00;;;;;;6144941;29;19914;-73
2023/04/16 15:47:35;;;;;;;;;;;18.50;56.00;;;;;;6145959;29;19918;-73
2023/04/16 15:50:36;;;;;;;;;;;18.50;56.00;;;;;;6146207;29;19949;-76
2023/04/16 15:53:37;;;;;;;;;;;18.50;56.00;;;;;;6137921;29;19914;-71
2023/04/16 15:56:38;;;;;;;;;;;18.50;56.00;;;;;;6128545;29;19935;-71
2023/04/16 15:59:39;;;;;;;;;;;18.50;56.00;;;;;;6138881;29;19910;-71
2023/04/16 16:02:40;;;;;;;;;;;18.50;56.00;;;;;;6144874;29;19926;-71
2023/04/16 16:05:40;;;;;;;;;;;18.50;56.00;;;;;;6128354;29;19926;-71
2023/04/16 16:08:42;;;;;;;;;;;18.50;56.00;;;;;;6149548;28;19914;-71
2023/04/16 16:11:43;;;;;;;;;;;18.50;56.00;;;;;;6149800;29;19946;-75
2023/04/16 16:14:43;;;;;;;;;;;18.50;56.00;;;;;;6131699;28;20392;-70
2023/04/16 16:17:44;;;;;;;;;;;18.50;56.00;;;;;;6131938;29;19938;-70
2023/04/16 16:20:44;;;;;;;;;;;18.50;56.00;;;;;;6135476;29;19914;-71
2023/04/16 16:23:45;;;;;;;;;;;18.50;56.00;;;;;;6123314;29;19915;-71
2023/04/16 16:26:46;;;;;;;;;;;18.50;56.00;;;;;;6146082;28;19914;-71
2023/04/16 16:29:46;;;;;;;;;;;18.50;56.00;;;;;;6149284;29;19911;-71
2023/04/16 16:32:47;;;;;;;;;;;18.50;56.00;;;;;;6136776;29;19921;-71
2023/04/16 16:35:47;;;;;;;;;;;18.50;56.00;;;;;;6141812;29;20373;-70
2023/04/16 16:38:48;;;;;;;;;;;18.50;56.00;;;;;;6132553;29;19911;-72
2023/04/16 16:41:51;;;;;;;;;;;18.50;56.00;;;;;;6147608;29;19910;-71
2023/04/16 16:44:51;;;;;;;;;;;18.50;56.10;;;;;;6148454;29;20380;-71
2023/04/16 16:47:52;;;;;;;;;;;18.50;56.10;;;;;;6147147;29;19970;-71
2023/04/16 16:50:52;;;;;;;;;;;18.50;56.00;;;;;;6127144;29;20380;-71
2023/04/16 16:53:53;;;;;;;;;;;18.50;56.10;;;;;;6132989;29;19981;-70
2023/04/16 16:56:54;;;;;;;;;;;18.50;56.10;;;;;;6147150;29;19993;-71
2023/04/16 16:59:54;;;;;;;;;;;18.50;56.10;;;;;;6146232;29;19910;-71
2023/04/16 17:02:55;;;;;;;;;;;18.50;56.10;;;;;;6145874;29;19993;-71
2023/04/16 17:05:55;;;;;;;;;;;18.50;56.10;;;;;;6139086;28;19928;-70
2023/04/16 17:08:56;;;;;;;;;;;18.50;56.10;;;;;;6126668;29;19910;-69
2023/04/16 17:11:56;;;;;;;;;;;18.50;56.10;;;;;;6148197;29;20017;-72
2023/04/16 17:14:57;;;;;;;;;;;18.50;56.10;;;;;;6134947;29;19914;-71
2023/04/16 17:17:58;;;;;;;;;;;18.50;56.10;;;;;;6147973;28;19917;-71
2023/04/16 17:20:58;;;;;;;;;;;18.50;56.80;;;;;;6130761;29;19933;-70
2023/04/16 17:23:59;;;;;;;;;;;18.50;56.10;;;;;;6144157;29;19971;-71
2023/04/16 17:27:00;;;;;;;;;;;18.50;56.10;;;;;;6130861;29;19961;-72
2023/04/16 17:30:03;;;;;;;;;;;18.50;56.10;;;;;;6130448;29;19918;-72
2023/04/16 17:33:04;;;;;;;;;;;18.50;56.10;;;;;;6143063;29;19911;-71
2023/04/16 17:36:06;;;;;;;;;;;18.50;56.10;;;;;;6141129;28;20009;-71